sensor_id;sensor_type;location;lat;lon;timestamp;pressure;altitude;pressure_sealevel;temperature;humidity
77027;BME280;65956;52.986;17.490;2023-03-03T00:01:36;100856.16;;;-2.06;88.50
77027;BME280;65956;52.986;17.490;2023-03-03T00:04:04;100852.65;;;-2.07;88.39
77027;BME280;65956;52.986;17.490;2023-03-03T00:06:34;100852.17;;;-2.11;88.58
77027;BME280;65956;52.986;17.490;2023-03-03T00:09:01;100852.72;;;-2.11;88.65
77027;BME280;65956;52.986;17.490;2023-03-03T00:11:29;100850.91;;;-2.11;88.54
77027;BME280;65956;52.986;17.490;2023-03-03T00:13:56;100849.28;;;-2.10;88.63
77027;BME280;65956;52.986;17.490;2023-03-03T00:16:34;100841.79;;;-2.12;88.48
77027;BME280;65956;52.986;17.490;2023-03-03T00:19:16;100836.60;;;-2.12;88.78
77027;BME280;65956;52.986;17.490;2023-03-03T00:21:49;100828.41;;;-2.12;88.50
77027;BME280;65956;52.986;17.490;2023-03-03T00:24:26;100818.38;;;-2.14;88.66
77027;BME280;65956;52.986;17.490;2023-03-03T00:27:05;100815.70;;;-2.17;88.67
77027;BME280;65956;52.986;17.490;2023-03-03T00:29:38;100818.06;;;-2.19;88.85
77027;BME280;65956;52.986;17.490;2023-03-03T00:35:01;100815.78;;;-2.24;88.80
77027;BME280;65956;52.986;17.490;2023-03-03T00:37:37;100816.48;;;-2.29;88.71
77027;BME280;65956;52.986;17.490;2023-03-03T00:40:26;100812.23;;;-2.27;89.02
77027;BME280;65956;52.986;17.490;2023-03-03T00:42:59;100806.55;;;-2.26;88.76
77027;BME280;65956;52.986;17.490;2023-03-03T00:45:47;100804.37;;;-2.30;89.29
77027;BME280;65956;52.986;17.490;2023-03-03T00:48:31;100800.88;;;-2.28;89.18
77027;BME280;65956;52.986;17.490;2023-03-03T00:53:54;100803.73;;;-2.28;89.33
77027;BME280;65956;52.986;17.490;2023-03-03T00:56:22;100805.20;;;-2.34;89.35
77027;BME280;65956;52.986;17.490;2023-03-03T00:58:50;100793.86;;;-2.39;89.67
77027;BME280;65956;52.986;17.490;2023-03-03T01:01:19;100791.79;;;-2.41;89.14
77027;BME280;65956;52.986;17.490;2023-03-03T01:03:49;100793.20;;;-2.43;89.55
77027;BME280;65956;52.986;17.490;2023-03-03T01:06:16;100794.73;;;-2.42;89.85
77027;BME280;65956;52.986;17.490;2023-03-03T01:08:44;100790.64;;;-2.41;89.48
77027;BME280;65956;52.986;17.490;2023-03-03T01:11:14;100785.73;;;-2.44;89.66
77027;BME280;65956;52.986;17.490;2023-03-03T01:13:45;100781.05;;;-2.48;89.65
77027;BME280;65956;52.986;17.490;2023-03-03T01:16:14;100776.23;;;-2.52;89.66
77027;BME280;65956;52.986;17.490;2023-03-03T01:18:41;100777.02;;;-2.55;89.64
77027;BME280;65956;52.986;17.490;2023-03-03T01:21:10;100763.70;;;-2.59;90.00
77027;BME280;65956;52.986;17.490;2023-03-03T01:23:39;100764.80;;;-2.61;89.77
77027;BME280;65956;52.986;17.490;2023-03-03T01:26:06;100762.34;;;-2.63;90.14
77027;BME280;65956;52.986;17.490;2023-03-03T01:28:33;100769.55;;;-2.60;90.39
77027;BME280;65956;52.986;17.490;2023-03-03T01:31:04;100775.60;;;-2.61;90.18
77027;BME280;65956;52.986;17.490;2023-03-03T01:33:33;100776.91;;;-2.63;90.31
77027;BME280;65956;52.986;17.490;2023-03-03T01:36:02;100776.68;;;-2.64;90.35
77027;BME280;65956;52.986;17.490;2023-03-03T01:38:30;100779.74;;;-2.60;90.59
77027;BME280;65956;52.986;17.490;2023-03-03T01:40:58;100787.28;;;-2.58;90.58
77027;BME280;65956;52.986;17.490;2023-03-03T01:43:27;100783.29;;;-2.60;90.78
77027;BME280;65956;52.986;17.490;2023-03-03T01:48:30;100780.47;;;-2.61;90.76
77027;BME280;65956;52.986;17.490;2023-03-03T01:51:38;100767.98;;;-2.62;90.97
77027;BME280;65956;52.986;17.490;2023-03-03T01:54:06;100769.81;;;-2.63;90.96
77027;BME280;65956;52.986;17.490;2023-03-03T01:56:40;100775.38;;;-2.63;90.57
77027;BME280;65956;52.986;17.490;2023-03-03T01:59:16;100774.73;;;-2.63;90.70
77027;BME280;65956;52.986;17.490;2023-03-03T02:01:46;100775.06;;;-2.66;90.62
77027;BME280;65956;52.986;17.490;2023-03-03T02:04:15;100764.15;;;-2.68;90.73
77027;BME280;65956;52.986;17.490;2023-03-03T02:07:08;100755.58;;;-2.69;90.56
77027;BME280;65956;52.986;17.490;2023-03-03T02:09:42;100769.23;;;-2.68;90.85
77027;BME280;65956;52.986;17.490;2023-03-03T02:12:15;100762.56;;;-2.69;90.30
77027;BME280;65956;52.986;17.490;2023-03-03T02:14:45;100763.60;;;-2.73;90.49
77027;BME280;65956;52.986;17.490;2023-03-03T02:17:13;100758.70;;;-2.75;90.45
77027;BME280;65956;52.986;17.490;2023-03-03T02:19:53;100759.63;;;-2.77;90.57
77027;BME280;65956;52.986;17.490;2023-03-03T02:22:32;100773.15;;;-2.77;90.37
77027;BME280;65956;52.986;17.490;2023-03-03T02:25:02;100763.17;;;-2.78;90.17
77027;BME280;65956;52.986;17.490;2023-03-03T02:27:32;100769.45;;;-2.80;90.44
77027;BME280;65956;52.986;17.490;2023-03-03T02:30:17;100773.04;;;-2.81;90.38
77027;BME280;65956;52.986;17.490;2023-03-03T02:32:45;100771.96;;;-2.80;90.33
77027;BME280;65956;52.986;17.490;2023-03-03T02:35:37;100765.58;;;-2.80;90.41
77027;BME280;65956;52.986;17.490;2023-03-03T02:38:35;100759.52;;;-2.81;90.16
77027;BME280;65956;52.986;17.490;2023-03-03T02:43:56;100746.52;;;-2.75;90.55
77027;BME280;65956;52.986;17.490;2023-03-03T02:46:31;100740.96;;;-2.74;90.39
77027;BME280;65956;52.986;17.490;2023-03-03T02:49:01;100738.78;;;-2.74;90.25
77027;BME280;65956;52.986;17.490;2023-03-03T02:51:29;100729.63;;;-2.71;90.13
77027;BME280;65956;52.986;17.490;2023-03-03T02:53:57;100716.59;;;-2.69;89.97
77027;BME280;65956;52.986;17.490;2023-03-03T02:56:25;100715.71;;;-2.68;89.90
77027;BME280;65956;52.986;17.490;2023-03-03T02:58:52;100709.28;;;-2.71;90.20
77027;BME280;65956;52.986;17.490;2023-03-03T03:01:21;100711.84;;;-2.74;90.37
77027;BME280;65956;52.986;17.490;2023-03-03T03:03:49;100720.57;;;-2.73;89.90
77027;BME280;65956;52.986;17.490;2023-03-03T03:06:18;100720.20;;;-2.71;89.95
77027;BME280;65956;52.986;17.490;2023-03-03T03:08:46;100722.38;;;-2.70;90.01
77027;BME280;65956;52.986;17.490;2023-03-03T03:11:13;100729.68;;;-2.71;89.94
77027;BME280;65956;52.986;17.490;2023-03-03T03:13:41;100727.17;;;-2.72;90.11
77027;BME280;65956;52.986;17.490;2023-03-03T03:16:09;100718.95;;;-2.76;89.66
77027;BME280;65956;52.986;17.490;2023-03-03T03:18:36;100718.73;;;-2.76;90.09
77027;BME280;65956;52.986;17.490;2023-03-03T03:21:11;100725.65;;;-2.76;90.25
77027;BME280;65956;52.986;17.490;2023-03-03T03:23:40;100721.63;;;-2.79;90.15
77027;BME280;65956;52.986;17.490;2023-03-03T03:26:07;100726.45;;;-2.78;90.28
77027;BME280;65956;52.986;17.490;2023-03-03T03:28:35;100725.38;;;-2.76;90.64
77027;BME280;65956;52.986;17.490;2023-03-03T03:31:05;100724.01;;;-2.75;90.51
77027;BME280;65956;52.986;17.490;2023-03-03T03:33:34;100723.89;;;-2.74;90.43
77027;BME280;65956;52.986;17.490;2023-03-03T03:36:02;100718.82;;;-2.74;90.92
77027;BME280;65956;52.986;17.490;2023-03-03T03:38:31;100715.93;;;-2.73;90.91
77027;BME280;65956;52.986;17.490;2023-03-03T03:40:59;100715.55;;;-2.71;90.77
77027;BME280;65956;52.986;17.490;2023-03-03T03:43:28;100718.23;;;-2.70;90.71
77027;BME280;65956;52.986;17.490;2023-03-03T03:46:18;100713.04;;;-2.69;91.05
77027;BME280;65956;52.986;17.490;2023-03-03T03:52:58;100706.55;;;-2.68;91.13
77027;BME280;65956;52.986;17.490;2023-03-03T03:55:41;100703.02;;;-2.69;90.87
77027;BME280;65956;52.986;17.490;2023-03-03T03:58:54;100704.15;;;-2.67;91.08
77027;BME280;65956;52.986;17.490;2023-03-03T04:01:52;100699.52;;;-2.69;90.88
77027;BME280;65956;52.986;17.490;2023-03-03T04:05:32;100690.74;;;-2.73;91.56
77027;BME280;65956;52.986;17.490;2023-03-03T04:08:08;100690.14;;;-2.79;91.08
77027;BME280;65956;52.986;17.490;2023-03-03T04:11:14;100693.25;;;-2.75;91.15
77027;BME280;65956;52.986;17.490;2023-03-03T04:14:06;100705.19;;;-2.71;91.20
77027;BME280;65956;52.986;17.490;2023-03-03T04:17:10;100697.70;;;-2.68;91.17
77027;BME280;65956;52.986;17.490;2023-03-03T04:20:12;100694.66;;;-2.68;91.10
77027;BME280;65956;52.986;17.490;2023-03-03T04:23:34;100689.64;;;-2.70;91.28
77027;BME280;65956;52.986;17.490;2023-03-03T04:26:26;100686.54;;;-2.67;91.56
77027;BME280;65956;52.986;17.490;2023-03-03T04:29:14;100703.39;;;-2.66;91.35
77027;BME280;65956;52.986;17.490;2023-03-03T04:32:22;100706.38;;;-2.62;91.20
77027;BME280;65956;52.986;17.490;2023-03-03T04:35:19;100709.42;;;-2.61;91.24
77027;BME280;65956;52.986;17.490;2023-03-03T04:38:05;100703.75;;;-2.61;91.45
77027;BME280;65956;52.986;17.490;2023-03-03T04:41:09;100697.54;;;-2.58;91.67
77027;BME280;65956;52.986;17.490;2023-03-03T04:44:05;100686.02;;;-2.60;91.51
77027;BME280;65956;52.986;17.490;2023-03-03T04:50:50;100679.76;;;-2.63;91.12
77027;BME280;65956;52.986;17.490;2023-03-03T04:53:49;100673.86;;;-2.62;91.41
77027;BME280;65956;52.986;17.490;2023-03-03T04:57:03;100680.89;;;-2.59;91.40
77027;BME280;65956;52.986;17.490;2023-03-03T05:00:03;100684.34;;;-2.58;91.37
77027;BME280;65956;52.986;17.490;2023-03-03T05:03:00;100687.55;;;-2.58;91.50
77027;BME280;65956;52.986;17.490;2023-03-03T05:06:06;100692.25;;;-2.57;91.27
77027;BME280;65956;52.986;17.490;2023-03-03T05:09:03;100705.75;;;-2.56;91.25
77027;BME280;65956;52.986;17.490;2023-03-03T05:12:10;100708.45;;;-2.57;91.31
77027;BME280;65956;52.986;17.490;2023-03-03T05:15:20;100721.59;;;-2.59;91.27
77027;BME280;65956;52.986;17.490;2023-03-03T05:18:13;100726.61;;;-2.53;91.31
77027;BME280;65956;52.986;17.490;2023-03-03T05:20:53;100717.83;;;-2.57;91.25
77027;BME280;65956;52.986;17.490;2023-03-03T05:23:47;100722.50;;;-2.52;91.06
77027;BME280;65956;52.986;17.490;2023-03-03T05:26:48;100728.36;;;-2.58;91.30
77027;BME280;65956;52.986;17.490;2023-03-03T05:30:13;100736.64;;;-2.53;90.89
77027;BME280;65956;52.986;17.490;2023-03-03T05:33:00;100728.27;;;-2.52;90.95
77027;BME280;65956;52.986;17.490;2023-03-03T05:35:45;100718.47;;;-2.53;91.07
77027;BME280;65956;52.986;17.490;2023-03-03T05:38:44;100703.25;;;-2.53;91.16
77027;BME280;65956;52.986;17.490;2023-03-03T05:41:55;100694.20;;;-2.57;91.00
77027;BME280;65956;52.986;17.490;2023-03-03T05:44:31;100704.11;;;-2.53;90.94
77027;BME280;65956;52.986;17.490;2023-03-03T05:47:34;100701.99;;;-2.54;91.19
77027;BME280;65956;52.986;17.490;2023-03-03T05:50:40;100699.42;;;-2.54;91.48
77027;BME280;65956;52.986;17.490;2023-03-03T05:53:27;100705.10;;;-2.53;91.27
77027;BME280;65956;52.986;17.490;2023-03-03T05:56:29;100705.44;;;-2.51;91.06
77027;BME280;65956;52.986;17.490;2023-03-03T05:59:38;100709.45;;;-2.49;91.35
77027;BME280;65956;52.986;17.490;2023-03-03T06:02:34;100712.88;;;-2.46;91.45
77027;BME280;65956;52.986;17.490;2023-03-03T06:05:09;100712.06;;;-2.44;91.36
77027;BME280;65956;52.986;17.490;2023-03-03T06:07:41;100717.23;;;-2.41;91.78
77027;BME280;65956;52.986;17.490;2023-03-03T06:10:17;100722.23;;;-2.35;91.39
77027;BME280;65956;52.986;17.490;2023-03-03T06:16:54;100720.97;;;-2.28;91.68
77027;BME280;65956;52.986;17.490;2023-03-03T06:20:38;100710.92;;;-2.23;91.61
77027;BME280;65956;52.986;17.490;2023-03-03T06:24:26;100716.55;;;-2.14;91.44
77027;BME280;65956;52.986;17.490;2023-03-03T06:34:39;100720.78;;;-2.04;91.24
77027;BME280;65956;52.986;17.490;2023-03-03T06:37:06;100728.14;;;-2.00;91.37
77027;BME280;65956;52.986;17.490;2023-03-03T06:39:33;100730.64;;;-1.97;91.43
77027;BME280;65956;52.986;17.490;2023-03-03T06:42:01;100736.31;;;-1.96;91.08
77027;BME280;65956;52.986;17.490;2023-03-03T06:44:28;100730.95;;;-1.95;90.87
77027;BME280;65956;52.986;17.490;2023-03-03T06:46:55;100725.48;;;-1.91;90.88
77027;BME280;65956;52.986;17.490;2023-03-03T06:49:24;100727.48;;;-1.89;90.83
77027;BME280;65956;52.986;17.490;2023-03-03T06:51:51;100735.41;;;-1.89;91.00
77027;BME280;65956;52.986;17.490;2023-03-03T06:54:20;100738.73;;;-1.88;91.06
77027;BME280;65956;52.986;17.490;2023-03-03T06:56:56;100743.59;;;-1.86;90.81
77027;BME280;65956;52.986;17.490;2023-03-03T06:59:26;100744.45;;;-1.85;91.23
77027;BME280;65956;52.986;17.490;2023-03-03T07:01:55;100746.20;;;-1.84;91.11
77027;BME280;65956;52.986;17.490;2023-03-03T07:04:32;100736.81;;;-1.83;91.01
77027;BME280;65956;52.986;17.490;2023-03-03T07:07:14;100736.74;;;-1.79;90.87
77027;BME280;65956;52.986;17.490;2023-03-03T07:09:48;100739.26;;;-1.80;90.82
77027;BME280;65956;52.986;17.490;2023-03-03T07:12:21;100742.64;;;-1.80;90.99
77027;BME280;65956;52.986;17.490;2023-03-03T07:14:52;100744.71;;;-1.78;90.86
77027;BME280;65956;52.986;17.490;2023-03-03T07:17:24;100743.83;;;-1.77;91.15
77027;BME280;65956;52.986;17.490;2023-03-03T07:19:52;100747.98;;;-1.74;90.86
77027;BME280;65956;52.986;17.490;2023-03-03T07:22:23;100752.65;;;-1.71;90.86
77027;BME280;65956;52.986;17.490;2023-03-03T07:24:53;100760.83;;;-1.69;90.70
77027;BME280;65956;52.986;17.490;2023-03-03T07:27:26;100763.48;;;-1.63;90.86
77027;BME280;65956;52.986;17.490;2023-03-03T07:32:41;100774.81;;;-1.66;90.86
77027;BME280;65956;52.986;17.490;2023-03-03T07:35:42;100779.73;;;-1.66;90.90
77027;BME280;65956;52.986;17.490;2023-03-03T07:40:49;100792.79;;;-1.69;90.84
77027;BME280;65956;52.986;17.490;2023-03-03T07:43:33;100785.90;;;-1.67;90.57
77027;BME280;65956;52.986;17.490;2023-03-03T07:48:40;100775.69;;;-1.65;90.56
77027;BME280;65956;52.986;17.490;2023-03-03T07:51:20;100771.45;;;-1.62;90.71
77027;BME280;65956;52.986;17.490;2023-03-03T07:54:46;100764.98;;;-1.57;90.60
77027;BME280;65956;52.986;17.490;2023-03-03T07:56:47;100769.13;;;-1.55;90.53
77027;BME280;65956;52.986;17.490;2023-03-03T07:59:23;100776.00;;;-1.54;90.64
77027;BME280;65956;52.986;17.490;2023-03-03T08:01:56;100780.64;;;-1.51;90.71
77027;BME280;65956;52.986;17.490;2023-03-03T08:04:48;100791.17;;;-1.48;90.59
77027;BME280;65956;52.986;17.490;2023-03-03T08:07:20;100789.95;;;-1.44;90.44
77027;BME280;65956;52.986;17.490;2023-03-03T08:09:59;100796.34;;;-1.44;90.33
77027;BME280;65956;52.986;17.490;2023-03-03T08:12:31;100791.35;;;-1.43;90.38
77027;BME280;65956;52.986;17.490;2023-03-03T08:15:15;100785.23;;;-1.43;90.12
77027;BME280;65956;52.986;17.490;2023-03-03T08:17:44;100782.91;;;-1.38;90.17
77027;BME280;65956;52.986;17.490;2023-03-03T08:20:43;100785.13;;;-1.32;90.09
77027;BME280;65956;52.986;17.490;2023-03-03T08:23:13;100782.64;;;-1.28;90.15
77027;BME280;65956;52.986;17.490;2023-03-03T08:25:41;100789.43;;;-1.29;89.98
77027;BME280;65956;52.986;17.490;2023-03-03T08:28:09;100796.05;;;-1.30;89.83
77027;BME280;65956;52.986;17.490;2023-03-03T08:30:37;100795.89;;;-1.31;89.79
77027;BME280;65956;52.986;17.490;2023-03-03T08:33:05;100784.34;;;-1.30;89.49
77027;BME280;65956;52.986;17.490;2023-03-03T08:35:32;100789.70;;;-1.29;89.67
77027;BME280;65956;52.986;17.490;2023-03-03T08:38:00;100781.61;;;-1.28;89.16
77027;BME280;65956;52.986;17.490;2023-03-03T08:40:27;100782.84;;;-1.26;89.45
77027;BME280;65956;52.986;17.490;2023-03-03T08:42:54;100784.52;;;-1.23;89.07
77027;BME280;65956;52.986;17.490;2023-03-03T08:45:25;100787.27;;;-1.25;88.91
77027;BME280;65956;52.986;17.490;2023-03-03T08:47:52;100792.41;;;-1.23;88.91
77027;BME280;65956;52.986;17.490;2023-03-03T08:50:20;100793.92;;;-1.20;88.67
77027;BME280;65956;52.986;17.490;2023-03-03T08:52:47;100791.98;;;-1.16;88.76
77027;BME280;65956;52.986;17.490;2023-03-03T08:55:15;100795.79;;;-1.13;88.85
77027;BME280;65956;52.986;17.490;2023-03-03T08:57:43;100792.77;;;-1.10;88.52
77027;BME280;65956;52.986;17.490;2023-03-03T09:00:14;100789.67;;;-1.07;88.46
77027;BME280;65956;52.986;17.490;2023-03-03T09:02:42;100788.43;;;-1.01;88.23
77027;BME280;65956;52.986;17.490;2023-03-03T09:05:11;100795.08;;;-0.96;88.19
77027;BME280;65956;52.986;17.490;2023-03-03T09:07:41;100794.89;;;-0.95;88.02
77027;BME280;65956;52.986;17.490;2023-03-03T09:10:13;100792.88;;;-0.95;88.12
77027;BME280;65956;52.986;17.490;2023-03-03T09:12:43;100789.77;;;-0.98;88.06
77027;BME280;65956;52.986;17.490;2023-03-03T09:15:29;100793.77;;;-0.97;87.55
77027;BME280;65956;52.986;17.490;2023-03-03T09:18:13;100786.77;;;-0.99;87.18
77027;BME280;65956;52.986;17.490;2023-03-03T09:23:48;100783.06;;;-1.01;87.32
77027;BME280;65956;52.986;17.490;2023-03-03T09:26:52;100785.63;;;-0.99;87.65
77027;BME280;65956;52.986;17.490;2023-03-03T09:29:25;100787.33;;;-0.90;87.36
77027;BME280;65956;52.986;17.490;2023-03-03T09:31:55;100787.91;;;-0.89;87.80
77027;BME280;65956;52.986;17.490;2023-03-03T09:34:39;100789.71;;;-0.89;87.59
77027;BME280;65956;52.986;17.490;2023-03-03T09:39:43;100788.42;;;-0.85;87.42
77027;BME280;65956;52.986;17.490;2023-03-03T09:45:44;100785.58;;;-0.64;87.30
77027;BME280;65956;52.986;17.490;2023-03-03T09:54:36;100784.71;;;-0.58;86.83
77027;BME280;65956;52.986;17.490;2023-03-03T09:59:58;100780.58;;;-0.43;86.52
77027;BME280;65956;52.986;17.490;2023-03-03T10:02:59;100778.48;;;-0.41;85.98
77027;BME280;65956;52.986;17.490;2023-03-03T10:05:42;100772.73;;;-0.36;86.14
77027;BME280;65956;52.986;17.490;2023-03-03T10:08:23;100774.20;;;-0.24;86.15
77027;BME280;65956;52.986;17.490;2023-03-03T10:13:58;100770.48;;;0.01;85.52
77027;BME280;65956;52.986;17.490;2023-03-03T10:19:06;100763.38;;;0.13;85.15
77027;BME280;65956;52.986;17.490;2023-03-03T10:21:50;100759.21;;;0.14;84.94
77027;BME280;65956;52.986;17.490;2023-03-03T10:24:41;100761.08;;;0.09;84.72
77027;BME280;65956;52.986;17.490;2023-03-03T10:28:29;100758.85;;;0.30;85.06
77027;BME280;65956;52.986;17.490;2023-03-03T10:34:05;100755.23;;;0.46;84.08
77027;BME280;65956;52.986;17.490;2023-03-03T10:36:54;100753.06;;;0.53;83.67
77027;BME280;65956;52.986;17.490;2023-03-03T10:39:49;100749.09;;;0.55;83.05
77027;BME280;65956;52.986;17.490;2023-03-03T10:48:22;100747.15;;;0.68;83.41
77027;BME280;65956;52.986;17.490;2023-03-03T10:56:53;100736.85;;;0.52;83.47
77027;BME280;65956;52.986;17.490;2023-03-03T10:59:37;100738.71;;;0.59;83.86
77027;BME280;65956;52.986;17.490;2023-03-03T11:02:23;100733.55;;;0.65;83.67
77027;BME280;65956;52.986;17.490;2023-03-03T11:07:41;100727.77;;;0.77;83.70
77027;BME280;65956;52.986;17.490;2023-03-03T11:12:55;100719.65;;;0.77;83.52
77027;BME280;65956;52.986;17.490;2023-03-03T11:16:12;100721.98;;;0.79;83.55
77027;BME280;65956;52.986;17.490;2023-03-03T11:27:13;100711.16;;;0.97;83.27
77027;BME280;65956;52.986;17.490;2023-03-03T11:35:17;100718.89;;;1.14;82.92
77027;BME280;65956;52.986;17.490;2023-03-03T11:44:07;100707.60;;;1.13;82.84
77027;BME280;65956;52.986;17.490;2023-03-03T11:46:22;100703.58;;;1.20;82.89
77027;BME280;65956;52.986;17.490;2023-03-03T11:56:43;100695.65;;;1.37;82.48
77027;BME280;65956;52.986;17.490;2023-03-03T12:02:24;100701.10;;;1.43;82.79
77027;BME280;65956;52.986;17.490;2023-03-03T12:05:00;100702.72;;;1.51;82.65
77027;BME280;65956;52.986;17.490;2023-03-03T12:07:50;100696.82;;;1.54;82.14
77027;BME280;65956;52.986;17.490;2023-03-03T12:10:39;100702.96;;;1.52;82.15
77027;BME280;65956;52.986;17.490;2023-03-03T12:15:59;100705.09;;;1.59;82.06
77027;BME280;65956;52.986;17.490;2023-03-03T12:18:44;100711.16;;;1.57;82.03
77027;BME280;65956;52.986;17.490;2023-03-03T12:26:57;100704.84;;;1.60;82.49
77027;BME280;65956;52.986;17.490;2023-03-03T12:29:43;100701.34;;;1.71;82.40
77027;BME280;65956;52.986;17.490;2023-03-03T12:35:12;100680.94;;;1.78;80.88
77027;BME280;65956;52.986;17.490;2023-03-03T12:37:47;100687.16;;;1.74;80.48
77027;BME280;65956;52.986;17.490;2023-03-03T12:46:02;100680.17;;;1.80;81.51
77027;BME280;65956;52.986;17.490;2023-03-03T12:48:42;100674.39;;;1.87;81.37
77027;BME280;65956;52.986;17.490;2023-03-03T12:56:31;100670.42;;;1.92;79.55
77027;BME280;65956;52.986;17.490;2023-03-03T12:59:07;100664.16;;;2.01;80.11
77027;BME280;65956;52.986;17.490;2023-03-03T13:07:49;100652.29;;;2.25;79.83
77027;BME280;65956;52.986;17.490;2023-03-03T13:10:44;100655.50;;;2.27;79.13
77027;BME280;65956;52.986;17.490;2023-03-03T13:13:24;100656.92;;;2.22;78.32
77027;BME280;65956;52.986;17.490;2023-03-03T13:16:14;100646.96;;;2.20;78.11
77027;BME280;65956;52.986;17.490;2023-03-03T13:18:58;100649.76;;;2.28;78.39
77027;BME280;65956;52.986;17.490;2023-03-03T13:26:38;100649.34;;;2.36;77.79
77027;BME280;65956;52.986;17.490;2023-03-03T13:29:19;100647.27;;;2.30;77.36
77027;BME280;65956;52.986;17.490;2023-03-03T13:34:52;100639.34;;;2.36;78.82
77027;BME280;65956;52.986;17.490;2023-03-03T13:37:45;100635.11;;;2.41;78.88
77027;BME280;65956;52.986;17.490;2023-03-03T13:40:25;100628.65;;;2.51;78.83
77027;BME280;65956;52.986;17.490;2023-03-03T13:45:34;100629.81;;;2.51;78.45
77027;BME280;65956;52.986;17.490;2023-03-03T13:51:31;100628.61;;;2.51;78.52
77027;BME280;65956;52.986;17.490;2023-03-03T13:54:05;100632.32;;;2.54;78.46
77027;BME280;65956;52.986;17.490;2023-03-03T14:05:48;100626.04;;;2.73;77.93
77027;BME280;65956;52.986;17.490;2023-03-03T14:11:24;100629.86;;;2.79;77.79
77027;BME280;65956;52.986;17.490;2023-03-03T14:14:06;100621.27;;;2.72;77.24
77027;BME280;65956;52.986;17.490;2023-03-03T14:16:51;100623.84;;;2.64;77.59
77027;BME280;65956;52.986;17.490;2023-03-03T14:19:30;100622.58;;;2.59;77.91
77027;BME280;65956;52.986;17.490;2023-03-03T14:25:06;100611.71;;;2.58;77.45
77027;BME280;65956;52.986;17.490;2023-03-03T14:27:37;100606.30;;;2.57;77.41
77027;BME280;65956;52.986;17.490;2023-03-03T14:35:34;100593.53;;;2.54;76.66
77027;BME280;65956;52.986;17.490;2023-03-03T14:38:12;100585.02;;;2.56;76.66
77027;BME280;65956;52.986;17.490;2023-03-03T14:40:42;100591.64;;;2.66;77.12
77027;BME280;65956;52.986;17.490;2023-03-03T14:43:59;100596.87;;;2.66;76.16
77027;BME280;65956;52.986;17.490;2023-03-03T14:46:34;100588.23;;;2.57;75.55
77027;BME280;65956;52.986;17.490;2023-03-03T14:49:15;100586.44;;;2.50;75.66
77027;BME280;65956;52.986;17.490;2023-03-03T14:51:51;100594.27;;;2.52;75.93
77027;BME280;65956;52.986;17.490;2023-03-03T14:54:23;100592.61;;;2.49;75.84
77027;BME280;65956;52.986;17.490;2023-03-03T14:59:33;100587.70;;;2.46;76.42
77027;BME280;65956;52.986;17.490;2023-03-03T15:04:46;100579.77;;;2.37;76.43
77027;BME280;65956;52.986;17.490;2023-03-03T15:09:53;100574.46;;;2.33;75.91
77027;BME280;65956;52.986;17.490;2023-03-03T15:12:34;100567.89;;;2.25;76.19
77027;BME280;65956;52.986;17.490;2023-03-03T15:15:17;100565.74;;;2.16;76.44
77027;BME280;65956;52.986;17.490;2023-03-03T15:17:56;100561.27;;;2.07;77.16
77027;BME280;65956;52.986;17.490;2023-03-03T15:31:52;100559.11;;;1.76;77.99
77027;BME280;65956;52.986;17.490;2023-03-03T15:34:39;100554.92;;;1.69;78.36
77027;BME280;65956;52.986;17.490;2023-03-03T15:40:22;100547.85;;;1.58;78.14
77027;BME280;65956;52.986;17.490;2023-03-03T15:43:29;100556.82;;;1.53;78.47
77027;BME280;65956;52.986;17.490;2023-03-03T15:57:20;100554.90;;;1.30;79.01
77027;BME280;65956;52.986;17.490;2023-03-03T15:59:59;100550.36;;;1.26;79.63
77027;BME280;65956;52.986;17.490;2023-03-03T16:02:51;100544.88;;;1.21;79.82
77027;BME280;65956;52.986;17.490;2023-03-03T16:05:32;100543.50;;;1.16;80.10
77027;BME280;65956;52.986;17.490;2023-03-03T16:08:08;100535.79;;;1.12;80.31
77027;BME280;65956;52.986;17.490;2023-03-03T16:11:12;100537.20;;;1.07;80.37
77027;BME280;65956;52.986;17.490;2023-03-03T16:17:06;100535.90;;;1.06;80.76
77027;BME280;65956;52.986;17.490;2023-03-03T16:22:10;100534.55;;;1.00;81.13
77027;BME280;65956;52.986;17.490;2023-03-03T16:24:59;100540.00;;;0.98;81.28
77027;BME280;65956;52.986;17.490;2023-03-03T16:36:10;100526.21;;;0.81;82.05
77027;BME280;65956;52.986;17.490;2023-03-03T16:38:44;100528.08;;;0.81;81.95
77027;BME280;65956;52.986;17.490;2023-03-03T16:41:26;100526.06;;;0.80;82.10
77027;BME280;65956;52.986;17.490;2023-03-03T16:54:02;100529.21;;;0.70;82.53
77027;BME280;65956;52.986;17.490;2023-03-03T17:04:57;100526.38;;;0.51;83.15
77027;BME280;65956;52.986;17.490;2023-03-03T17:08:25;100522.57;;;0.45;83.34
77027;BME280;65956;52.986;17.490;2023-03-03T17:10:52;100528.23;;;0.38;83.38
77027;BME280;65956;52.986;17.490;2023-03-03T17:27:39;100507.66;;;0.33;84.46
77027;BME280;65956;52.986;17.490;2023-03-03T17:30:21;100524.81;;;0.35;84.48
77027;BME280;65956;52.986;17.490;2023-03-03T17:36:13;100521.21;;;0.44;84.80
77027;BME280;65956;52.986;17.490;2023-03-03T17:42:19;100525.60;;;0.54;84.63
77027;BME280;65956;52.986;17.490;2023-03-03T18:02:17;100504.52;;;0.70;83.90
77027;BME280;65956;52.986;17.490;2023-03-03T18:07:44;100502.86;;;0.74;83.99
77027;BME280;65956;52.986;17.490;2023-03-03T18:18:40;100488.44;;;0.77;83.75
77027;BME280;65956;52.986;17.490;2023-03-03T18:21:26;100489.44;;;0.79;83.69
77027;BME280;65956;52.986;17.490;2023-03-03T18:24:26;100489.27;;;0.80;83.81
77027;BME280;65956;52.986;17.490;2023-03-03T18:27:28;100477.52;;;0.81;84.02
77027;BME280;65956;52.986;17.490;2023-03-03T18:41:17;100472.56;;;0.83;84.35
77027;BME280;65956;52.986;17.490;2023-03-03T18:43:59;100473.08;;;0.83;84.29
77027;BME280;65956;52.986;17.490;2023-03-03T18:49:08;100468.26;;;0.86;84.20
77027;BME280;65956;52.986;17.490;2023-03-03T19:07:50;100460.97;;;0.94;84.58
77027;BME280;65956;52.986;17.490;2023-03-03T19:12:56;100447.23;;;0.96;84.84